createdAt,value
2023-05-10T00:01:18.532Z,7.16
2023-05-10T00:04:06.944Z,7.16
2023-05-10T00:06:35.723Z,7.16
2023-05-10T00:09:04.647Z,7.16
2023-05-10T00:12:04.219Z,7.16
2023-05-10T00:14:36.123Z,7.16
2023-05-10T00:17:04.512Z,7.15
2023-05-10T00:19:35.858Z,7.15
2023-05-10T00:22:13.034Z,7.16
2023-05-10T00:25:07.870Z,7.16
2023-05-10T00:27:46.357Z,7.17
2023-05-10T00:31:35.533Z,7.17
2023-05-10T00:34:37.514Z,7.17
2023-05-10T00:37:08.376Z,7.19
2023-05-10T00:39:59.314Z,7.19
2023-05-10T00:42:29.157Z,7.18
2023-05-10T00:45:28.168Z,7.17
2023-05-10T00:48:13.248Z,7.16
2023-05-10T00:50:47.194Z,7.15
2023-05-10T00:53:40.412Z,7.14
2023-05-10T00:56:11.355Z,7.13
2023-05-10T00:58:53.246Z,7.11
2023-05-10T01:01:21.687Z,7.09
2023-05-10T01:03:50.527Z,7.07
2023-05-10T01:06:26.559Z,7.04
2023-05-10T01:09:02.323Z,7.02
2023-05-10T01:11:31.119Z,6.99
2023-05-10T01:14:00.208Z,6.95
2023-05-10T01:16:31.004Z,6.92
2023-05-10T01:19:00.238Z,6.89
2023-05-10T01:21:44.146Z,6.85
2023-05-10T01:24:58.041Z,6.80
2023-05-10T01:27:46.490Z,6.75
2023-05-10T01:30:38.944Z,6.70
2023-05-10T01:33:30.760Z,6.64
2023-05-10T01:36:01.786Z,6.58
2023-05-10T01:38:51.792Z,6.53
2023-05-10T01:41:31.217Z,6.47
2023-05-10T01:44:08.610Z,6.42
2023-05-10T01:46:39.525Z,6.34
2023-05-10T01:49:12.841Z,6.28
2023-05-10T01:51:47.453Z,6.21
2023-05-10T01:54:21.670Z,6.15
2023-05-10T01:57:06.606Z,6.08
2023-05-10T01:59:41.963Z,6.00
2023-05-10T02:02:13.106Z,5.93
2023-05-10T02:04:43.243Z,5.85
2023-05-10T02:07:13.196Z,5.76
2023-05-10T02:09:45.225Z,5.67
2023-05-10T02:12:15.092Z,5.58
2023-05-10T02:14:56.689Z,5.49
2023-05-10T02:17:37.300Z,5.38
2023-05-10T02:20:08.824Z,5.27
2023-05-10T02:22:38.049Z,5.17
2023-05-10T02:25:10.542Z,5.09
2023-05-10T02:27:41.161Z,4.98
2023-05-10T02:30:11.890Z,4.89
2023-05-10T02:32:40.710Z,4.81
2023-05-10T02:35:11.170Z,4.73
2023-05-10T02:37:41.129Z,4.67
2023-05-10T02:40:11.358Z,4.61
2023-05-10T02:42:43.471Z,4.55
2023-05-10T02:45:18.651Z,4.51
2023-05-10T02:47:47.171Z,4.47
2023-05-10T02:50:16.328Z,4.43
2023-05-10T02:53:00.204Z,4.39
2023-05-10T02:55:36.555Z,4.34
2023-05-10T02:58:07.711Z,4.30
2023-05-10T03:00:41.793Z,4.27
2023-05-10T03:03:09.949Z,4.23
2023-05-10T03:05:38.556Z,4.19
2023-05-10T03:08:10.529Z,4.14
2023-05-10T03:11:02.353Z,4.10
2023-05-10T03:14:14.459Z,4.05
2023-05-10T03:16:48.166Z,3.99
2023-05-10T03:19:34.251Z,3.94
2023-05-10T03:22:07.956Z,3.88
2023-05-10T03:24:37.811Z,3.82
2023-05-10T03:27:07.477Z,3.77
2023-05-10T03:29:37.293Z,3.72
2023-05-10T03:32:06.089Z,3.69
2023-05-10T03:34:34.318Z,3.66
2023-05-10T03:37:10.078Z,3.64
2023-05-10T03:39:38.866Z,3.63
2023-05-10T03:42:13.088Z,3.63
2023-05-10T03:44:41.495Z,3.62
2023-05-10T03:47:31.028Z,3.63
2023-05-10T03:49:59.754Z,3.64
2023-05-10T03:52:40.333Z,3.65
2023-05-10T03:55:08.926Z,3.66
2023-05-10T03:57:47.121Z,3.69
2023-05-10T04:00:15.943Z,3.72
2023-05-10T04:03:24.691Z,3.77
2023-05-10T04:06:23.267Z,3.85
2023-05-10T04:08:56.516Z,3.97
2023-05-10T04:11:35.952Z,4.07
2023-05-10T04:14:04.206Z,4.20
2023-05-10T04:16:35.114Z,4.33
2023-05-10T04:19:04.162Z,4.48
2023-05-10T04:21:32.503Z,4.63
2023-05-10T04:24:31.333Z,4.79
2023-05-10T04:27:04.780Z,4.99
2023-05-10T04:29:36.523Z,5.20
2023-05-10T04:32:17.386Z,5.40
2023-05-10T04:34:51.780Z,5.61
2023-05-10T04:38:00.869Z,5.81
2023-05-10T04:40:32.540Z,6.06
2023-05-10T04:43:21.435Z,6.28
2023-05-10T04:46:20.041Z,6.51
2023-05-10T04:48:51.665Z,6.84
2023-05-10T04:51:22.918Z,7.18
2023-05-10T04:54:30.948Z,7.57
2023-05-10T04:56:59.310Z,8.05
2023-05-10T04:59:30.865Z,8.52
2023-05-10T05:02:04.702Z,8.99
2023-05-10T05:04:33.243Z,9.52
2023-05-10T05:07:03.678Z,9.99
2023-05-10T05:09:52.164Z,10.48
2023-05-10T05:12:23.059Z,11.01
2023-05-10T05:14:51.476Z,11.48
2023-05-10T05:17:29.117Z,11.95
2023-05-10T05:20:11.143Z,12.42
2023-05-10T05:22:42.322Z,12.95
2023-05-10T05:25:17.910Z,13.47
2023-05-10T05:27:46.050Z,13.98
2023-05-10T05:30:14.780Z,14.53
2023-05-10T05:32:52.374Z,15.13
2023-05-10T05:35:20.871Z,16.97
2023-05-10T05:37:49.063Z,19.20
2023-05-10T05:40:17.220Z,21.14
2023-05-10T05:42:45.553Z,22.85
2023-05-10T05:45:14.468Z,24.27
2023-05-10T05:47:43.085Z,25.36
2023-05-10T05:50:11.695Z,25.99
2023-05-10T05:52:43.625Z,26.58
2023-05-10T05:55:12.134Z,26.94
2023-05-10T05:57:40.693Z,27.15
2023-05-10T06:00:09.705Z,26.98
2023-05-10T06:02:44.123Z,26.07
2023-05-10T06:05:12.375Z,24.78
2023-05-10T06:07:43.357Z,23.41
2023-05-10T06:10:11.602Z,22.04
2023-05-10T06:12:40.004Z,20.93
2023-05-10T06:15:14.109Z,20.04
2023-05-10T06:17:43.807Z,19.14
2023-05-10T06:20:12.607Z,18.40
2023-05-10T06:22:40.882Z,17.80
2023-05-10T06:25:10.272Z,17.31
2023-05-10T06:27:38.347Z,16.87
2023-05-10T06:30:12.963Z,16.49
2023-05-10T06:32:42.525Z,16.06
2023-05-10T06:35:10.954Z,15.73
2023-05-10T06:37:38.924Z,15.46
2023-05-10T06:40:08.241Z,15.24
2023-05-10T06:42:36.600Z,15.09
2023-05-10T06:45:05.387Z,14.93
2023-05-10T06:47:34.745Z,14.76
2023-05-10T06:50:04.833Z,14.66
2023-05-10T06:52:33.051Z,14.62
2023-05-10T06:55:01.462Z,14.59
2023-05-10T06:57:34.420Z,14.61
2023-05-10T07:00:06.842Z,14.65
2023-05-10T07:02:48.618Z,14.73
2023-05-10T07:05:17.053Z,14.84
2023-05-10T07:07:47.837Z,14.93
2023-05-10T07:10:16.303Z,15.01
2023-05-10T07:12:44.656Z,15.05
2023-05-10T07:15:13.484Z,15.12
2023-05-10T07:17:43.345Z,15.22
2023-05-10T07:20:14.559Z,15.31
2023-05-10T07:22:42.686Z,15.35
2023-05-10T07:25:11.102Z,15.41
2023-05-10T07:27:39.496Z,15.45
2023-05-10T07:30:12.089Z,15.52
2023-05-10T07:32:40.694Z,15.60
2023-05-10T07:35:09.785Z,15.64
2023-05-10T07:37:37.809Z,15.67
2023-05-10T07:40:09.478Z,15.74
2023-05-10T07:42:38.090Z,15.81
2023-05-10T07:45:15.882Z,15.88
2023-05-10T07:47:44.375Z,15.94
2023-05-10T07:50:12.696Z,16.01
2023-05-10T07:52:41.407Z,16.08
2023-05-10T07:55:10.538Z,16.10
2023-05-10T07:57:39.180Z,16.16
2023-05-10T08:00:19.256Z,16.25
2023-05-10T08:02:48.720Z,16.37
2023-05-10T08:05:17.546Z,16.49
2023-05-10T08:07:46.102Z,16.56
2023-05-10T08:10:42.252Z,16.65
2023-05-10T08:13:11.317Z,16.68
2023-05-10T08:15:39.646Z,16.71
2023-05-10T08:18:10.669Z,16.78
2023-05-10T08:20:41.690Z,16.86
2023-05-10T08:23:09.793Z,16.94
2023-05-10T08:25:51.312Z,16.99
2023-05-10T08:28:22.289Z,17.09
2023-05-10T08:30:53.463Z,17.22
2023-05-10T08:33:43.763Z,17.36
2023-05-10T08:36:33.304Z,17.47
2023-05-10T08:39:07.716Z,17.59
2023-05-10T08:42:00.570Z,17.69
2023-05-10T08:44:33.022Z,17.81
2023-05-10T08:47:06.044Z,17.92
2023-05-10T08:49:35.828Z,17.99
2023-05-10T08:52:26.233Z,18.04
2023-05-10T08:54:55.136Z,18.09
2023-05-10T08:57:28.123Z,18.17
2023-05-10T08:59:56.566Z,18.23
2023-05-10T09:02:29.126Z,18.27
2023-05-10T09:04:59.070Z,18.31
2023-05-10T09:07:28.295Z,18.34
2023-05-10T09:09:57.700Z,18.30
2023-05-10T09:12:27.827Z,18.29
2023-05-10T09:14:59.372Z,18.17
2023-05-10T09:17:35.984Z,18.05
2023-05-10T09:20:05.629Z,18.07
2023-05-10T09:22:35.424Z,18.13
2023-05-10T09:25:12.069Z,18.04
2023-05-10T09:27:41.853Z,17.84
2023-05-10T09:30:10.540Z,17.78
2023-05-10T09:32:43.966Z,17.89
2023-05-10T09:35:15.156Z,18.03
2023-05-10T09:37:48.680Z,18.11
2023-05-10T09:40:21.981Z,18.11
2023-05-10T09:43:01.732Z,18.12
2023-05-10T09:45:32.366Z,18.20
2023-05-10T09:48:03.076Z,18.34
2023-05-10T09:50:31.669Z,18.53
2023-05-10T09:53:02.101Z,18.68
2023-05-10T09:55:47.732Z,18.75
2023-05-10T09:58:16.432Z,18.91
2023-05-10T10:00:46.414Z,19.00
2023-05-10T10:03:43.233Z,19.05
2023-05-10T10:06:26.457Z,19.15
2023-05-10T10:08:58.228Z,19.29
2023-05-10T10:11:26.680Z,19.36
2023-05-10T10:13:55.811Z,19.33
2023-05-10T10:16:25.406Z,19.37
2023-05-10T10:18:53.647Z,19.51
2023-05-10T10:21:23.021Z,19.69
2023-05-10T10:23:52.086Z,19.81
2023-05-10T10:26:22.106Z,19.86
2023-05-10T10:29:24.609Z,19.95
2023-05-10T10:32:05.446Z,20.04
2023-05-10T10:34:36.800Z,20.05
2023-05-10T10:37:06.425Z,20.01
2023-05-10T10:39:37.653Z,19.99
2023-05-10T10:42:06.193Z,19.96
2023-05-10T10:44:38.974Z,19.94
2023-05-10T10:47:12.914Z,19.89
2023-05-10T10:49:41.764Z,19.87
2023-05-10T10:52:24.086Z,19.91
2023-05-10T10:55:03.262Z,19.86
2023-05-10T10:57:43.667Z,19.82
2023-05-10T11:00:32.306Z,19.85
2023-05-10T11:03:08.680Z,19.92
2023-05-10T11:05:38.467Z,19.98
2023-05-10T11:08:17.476Z,20.03
2023-05-10T11:10:54.076Z,20.00
2023-05-10T11:13:43.342Z,19.82
2023-05-10T11:16:16.337Z,19.60
2023-05-10T11:19:05.764Z,19.46
2023-05-10T11:21:35.689Z,19.30
2023-05-10T11:24:14.115Z,19.27
2023-05-10T11:26:43.315Z,19.26
2023-05-10T11:29:11.410Z,19.32
2023-05-10T11:31:45.794Z,19.37
2023-05-10T11:34:27.794Z,19.36
2023-05-10T11:36:57.400Z,19.38
2023-05-10T11:39:32.717Z,19.35
2023-05-10T11:42:01.327Z,19.23
2023-05-10T11:44:33.416Z,19.08
2023-05-10T11:47:02.702Z,18.97
2023-05-10T11:49:31.207Z,18.91
2023-05-10T11:52:12.556Z,18.91
2023-05-10T11:54:52.935Z,18.94
2023-05-10T11:57:22.583Z,18.99
2023-05-10T11:59:56.336Z,19.10
2023-05-10T12:02:25.405Z,19.22
2023-05-10T12:04:57.547Z,19.30
2023-05-10T12:07:27.233Z,19.26
2023-05-10T12:10:08.925Z,19.24
2023-05-10T12:12:48.499Z,19.29
2023-05-10T12:15:24.251Z,19.37
2023-05-10T12:17:55.888Z,19.41
2023-05-10T12:20:29.260Z,19.37
2023-05-10T12:23:00.689Z,19.33
2023-05-10T12:25:37.149Z,19.30
2023-05-10T12:28:08.851Z,19.27
2023-05-10T12:30:38.351Z,19.26
2023-05-10T12:33:13.563Z,19.24
2023-05-10T12:35:47.496Z,19.24
2023-05-10T12:38:52.236Z,19.20
2023-05-10T12:41:21.055Z,19.10
2023-05-10T12:43:49.784Z,19.01
2023-05-10T12:46:19.628Z,18.93
2023-05-10T12:49:08.017Z,18.86
2023-05-10T12:51:42.773Z,18.81
2023-05-10T12:54:19.830Z,18.79
2023-05-10T12:56:48.447Z,18.80
2023-05-10T12:59:16.933Z,18.78
2023-05-10T13:01:44.938Z,18.77
2023-05-10T13:04:13.776Z,18.70
2023-05-10T13:06:41.866Z,18.58
2023-05-10T13:09:09.813Z,18.52
2023-05-10T13:11:38.270Z,18.48
2023-05-10T13:14:06.593Z,18.45
2023-05-10T13:16:34.885Z,18.48
2023-05-10T13:19:04.052Z,18.56
2023-05-10T13:21:32.387Z,18.59
2023-05-10T13:24:01.473Z,18.56
2023-05-10T13:26:29.747Z,18.56
2023-05-10T13:29:01.164Z,18.58
2023-05-10T13:31:29.532Z,18.60
2023-05-10T13:33:58.414Z,18.61
2023-05-10T13:36:26.804Z,18.60
2023-05-10T13:38:54.956Z,18.57
2023-05-10T13:41:26.245Z,18.54
2023-05-10T13:43:54.711Z,18.48
2023-05-10T13:46:23.161Z,18.43
2023-05-10T13:48:51.272Z,18.36
2023-05-10T13:51:19.563Z,18.20
2023-05-10T13:53:48.248Z,18.04
2023-05-10T13:56:16.340Z,17.90
2023-05-10T13:58:45.090Z,17.73
2023-05-10T14:01:13.328Z,17.64
2023-05-10T14:03:41.752Z,17.60
2023-05-10T14:06:10.127Z,17.56
2023-05-10T14:08:38.598Z,17.53
2023-05-10T14:11:07.110Z,17.54
2023-05-10T14:13:36.494Z,17.55
2023-05-10T14:16:16.019Z,17.59
2023-05-10T14:18:44.353Z,17.62
2023-05-10T14:21:13.103Z,17.60
2023-05-10T14:23:41.104Z,17.58
2023-05-10T14:26:09.728Z,17.59
2023-05-10T14:28:46.646Z,17.59
2023-05-10T14:31:15.757Z,17.54
2023-05-10T14:33:44.313Z,17.48
2023-05-10T14:36:14.942Z,17.39
2023-05-10T14:38:46.441Z,17.33
2023-05-10T14:41:16.221Z,17.22
2023-05-10T14:43:44.748Z,17.07
2023-05-10T14:46:13.220Z,16.97
2023-05-10T14:48:44.412Z,16.92
2023-05-10T14:51:12.999Z,16.90
2023-05-10T14:53:41.278Z,16.87
2023-05-10T14:56:30.370Z,16.84
2023-05-10T14:58:58.687Z,16.84
2023-05-10T15:01:27.845Z,16.85
2023-05-10T15:03:59.184Z,16.87
2023-05-10T15:06:35.036Z,16.87
2023-05-10T15:09:04.637Z,16.87
2023-05-10T15:11:33.177Z,16.90
2023-05-10T15:14:02.798Z,16.91
2023-05-10T15:16:33.421Z,16.90
2023-05-10T15:19:03.528Z,16.83
2023-05-10T15:21:48.348Z,16.74
2023-05-10T15:24:16.817Z,16.67
2023-05-10T15:26:53.768Z,16.65
2023-05-10T15:29:27.213Z,16.61
2023-05-10T15:31:55.816Z,16.60
2023-05-10T15:34:24.362Z,16.62
2023-05-10T15:36:52.529Z,16.64
2023-05-10T15:39:48.358Z,16.65
2023-05-10T15:42:26.258Z,16.64
2023-05-10T15:44:55.358Z,16.58
2023-05-10T15:47:33.910Z,16.50
2023-05-10T15:50:02.173Z,16.44
2023-05-10T15:52:42.429Z,16.40
2023-05-10T15:55:13.841Z,16.33
2023-05-10T15:58:04.474Z,16.26
2023-05-10T16:00:32.684Z,16.16
2023-05-10T16:03:01.117Z,16.08
2023-05-10T16:05:41.309Z,16.01
2023-05-10T16:08:09.372Z,15.94
2023-05-10T16:10:38.237Z,15.86
2023-05-10T16:13:17.166Z,15.79
2023-05-10T16:15:45.194Z,15.72
2023-05-10T16:18:13.759Z,15.64
2023-05-10T16:21:02.283Z,15.58
2023-05-10T16:23:54.596Z,15.51
2023-05-10T16:26:33.129Z,15.45
2023-05-10T16:29:01.504Z,15.39
2023-05-10T16:31:53.164Z,15.33
2023-05-10T16:34:25.409Z,15.26
2023-05-10T16:37:04.037Z,15.18
2023-05-10T16:39:43.551Z,15.11
2023-05-10T16:42:11.693Z,15.02
2023-05-10T16:44:46.180Z,14.94
2023-05-10T16:47:14.753Z,14.86
2023-05-10T16:49:42.867Z,14.77
2023-05-10T16:52:11.188Z,14.69
2023-05-10T16:54:48.901Z,14.59
2023-05-10T16:57:19.319Z,14.51
2023-05-10T16:59:53.549Z,14.43
2023-05-10T17:02:27.431Z,14.34
2023-05-10T17:04:56.396Z,14.25
2023-05-10T17:07:26.283Z,14.17
2023-05-10T17:09:54.885Z,14.08
2023-05-10T17:12:23.245Z,13.98
2023-05-10T17:14:54.146Z,13.90
2023-05-10T17:17:23.610Z,13.81
2023-05-10T17:19:54.653Z,13.71
2023-05-10T17:22:22.972Z,13.62
2023-05-10T17:24:54.116Z,13.54
2023-05-10T17:27:25.305Z,13.44
2023-05-10T17:30:05.323Z,13.34
2023-05-10T17:32:56.504Z,13.24
2023-05-10T17:35:25.116Z,13.12
2023-05-10T17:37:54.141Z,13.01
2023-05-10T17:40:22.377Z,12.90
2023-05-10T17:42:50.779Z,12.80
2023-05-10T17:45:28.230Z,12.68
2023-05-10T17:48:11.526Z,12.58
2023-05-10T17:50:43.500Z,12.48
2023-05-10T17:53:11.734Z,12.38
2023-05-10T17:55:42.064Z,12.28
2023-05-10T17:58:11.914Z,12.18
2023-05-10T18:00:40.506Z,12.08
2023-05-10T18:03:08.999Z,11.99
2023-05-10T18:05:38.995Z,11.90
2023-05-10T18:08:08.758Z,11.82
2023-05-10T18:10:41.683Z,11.72
2023-05-10T18:13:10.126Z,11.64
2023-05-10T18:15:38.402Z,11.56
2023-05-10T18:18:07.100Z,11.48
2023-05-10T18:20:35.666Z,11.39
2023-05-10T18:23:04.320Z,11.31
2023-05-10T18:25:32.987Z,11.22
2023-05-10T18:28:01.397Z,11.13
2023-05-10T18:30:29.570Z,11.06
2023-05-10T18:33:06.955Z,10.98
2023-05-10T18:35:45.858Z,10.92
2023-05-10T18:38:14.543Z,10.87
2023-05-10T18:40:42.868Z,10.84
2023-05-10T18:43:20.672Z,10.80
2023-05-10T18:45:51.386Z,10.78
2023-05-10T18:48:19.891Z,10.78
2023-05-10T18:50:48.588Z,10.76
2023-05-10T18:53:16.964Z,10.74
2023-05-10T18:55:46.588Z,10.73
2023-05-10T18:58:15.227Z,10.72
2023-05-10T19:00:43.628Z,10.72
2023-05-10T19:03:14.934Z,10.71
2023-05-10T19:05:43.146Z,10.70
2023-05-10T19:08:20.299Z,10.70
2023-05-10T19:10:48.404Z,10.69
2023-05-10T19:13:17.098Z,10.68
2023-05-10T19:15:45.216Z,10.65
2023-05-10T19:18:33.617Z,10.64
2023-05-10T19:21:09.749Z,10.62
2023-05-10T19:23:42.297Z,10.61
2023-05-10T19:26:36.311Z,10.59
2023-05-10T19:29:05.041Z,10.56
2023-05-10T19:31:53.703Z,10.52
2023-05-10T19:34:42.495Z,10.48
2023-05-10T19:37:13.275Z,10.43
2023-05-10T19:39:42.209Z,10.39
2023-05-10T19:42:10.650Z,10.35
2023-05-10T19:44:39.236Z,10.31
2023-05-10T19:47:09.108Z,10.27
2023-05-10T19:50:04.636Z,10.23
2023-05-10T19:52:32.889Z,10.19
2023-05-10T19:55:01.754Z,10.14
2023-05-10T19:57:30.141Z,10.11
2023-05-10T20:00:08.920Z,10.08
2023-05-10T20:03:00.070Z,10.05
2023-05-10T20:05:31.282Z,10.01
2023-05-10T20:08:20.084Z,9.98
2023-05-10T20:11:39.278Z,9.94
2023-05-10T20:14:17.481Z,9.91
2023-05-10T20:16:59.066Z,9.87
2023-05-10T20:19:39.603Z,9.85
2023-05-10T20:22:20.058Z,9.84
2023-05-10T20:24:48.388Z,9.83
2023-05-10T20:27:23.655Z,9.80
2023-05-10T20:29:54.502Z,9.78
2023-05-10T20:32:28.324Z,9.77
2023-05-10T20:35:27.091Z,9.75
2023-05-10T20:38:12.484Z,9.77
2023-05-10T20:40:40.628Z,9.73
2023-05-10T20:43:08.950Z,9.72
2023-05-10T20:45:39.946Z,9.70
2023-05-10T20:48:09.739Z,9.68
2023-05-10T20:50:38.364Z,9.66
2023-05-10T20:53:06.498Z,9.64
2023-05-10T20:55:34.728Z,9.63
2023-05-10T20:58:04.957Z,9.62
2023-05-10T21:00:33.515Z,9.60
2023-05-10T21:03:01.581Z,9.58
2023-05-10T21:05:30.673Z,9.56
2023-05-10T21:07:58.862Z,9.53
2023-05-10T21:10:28.455Z,9.51
2023-05-10T21:12:59.401Z,9.49
2023-05-10T21:15:27.790Z,9.47
2023-05-10T21:17:58.418Z,9.44
2023-05-10T21:20:26.873Z,9.40
2023-05-10T21:22:54.979Z,9.37
2023-05-10T21:25:23.558Z,9.35
2023-05-10T21:27:55.009Z,9.32
2023-05-10T21:30:23.396Z,9.30
2023-05-10T21:32:51.496Z,9.28
2023-05-10T21:35:19.847Z,9.26
2023-05-10T21:37:48.181Z,9.25
2023-05-10T21:40:16.634Z,9.24
2023-05-10T21:42:49.566Z,9.21
2023-05-10T21:45:20.833Z,9.19
2023-05-10T21:48:09.674Z,9.14
2023-05-10T21:50:38.036Z,9.09
2023-05-10T21:53:09.416Z,9.04
2023-05-10T21:55:40.690Z,8.99
2023-05-10T21:58:08.851Z,8.92
2023-05-10T22:00:37.155Z,8.84
2023-05-10T22:03:05.249Z,8.76
2023-05-10T22:05:36.773Z,8.69
2023-05-10T22:08:06.151Z,8.60
2023-05-10T22:10:34.721Z,8.52
2023-05-10T22:13:03.306Z,8.43
2023-05-10T22:15:34.212Z,8.32
2023-05-10T22:18:04.029Z,8.23
2023-05-10T22:20:32.957Z,8.13
2023-05-10T22:23:01.138Z,8.02
2023-05-10T22:25:29.315Z,7.91
2023-05-10T22:27:57.687Z,7.79
2023-05-10T22:30:25.986Z,7.67
2023-05-10T22:32:59.440Z,7.56
2023-05-10T22:35:27.743Z,7.43
2023-05-10T22:37:55.909Z,7.31
2023-05-10T22:40:24.085Z,7.20
2023-05-10T22:42:52.259Z,7.08
2023-05-10T22:45:20.343Z,6.96
2023-05-10T22:47:48.453Z,6.86
2023-05-10T22:50:17.233Z,6.77
2023-05-10T22:52:45.561Z,6.66
2023-05-10T22:55:13.814Z,6.57
2023-05-10T22:57:45.168Z,6.47
2023-05-10T23:00:14.184Z,6.38
2023-05-10T23:02:45.265Z,6.30
2023-05-10T23:05:13.820Z,6.20
2023-05-10T23:07:53.379Z,6.10
2023-05-10T23:10:22.033Z,6.02
2023-05-10T23:12:50.207Z,5.93
2023-05-10T23:15:18.693Z,5.85
2023-05-10T23:17:47.186Z,5.77
2023-05-10T23:20:16.003Z,5.71
2023-05-10T23:22:45.016Z,5.65
2023-05-10T23:25:13.119Z,5.58
2023-05-10T23:27:41.517Z,5.53
2023-05-10T23:30:10.030Z,5.47
2023-05-10T23:32:39.173Z,5.41
2023-05-10T23:35:08.284Z,5.35
2023-05-10T23:37:37.178Z,5.29
2023-05-10T23:40:06.438Z,5.25
2023-05-10T23:42:34.756Z,5.19
2023-05-10T23:45:03.131Z,5.16
2023-05-10T23:47:31.692Z,5.11
2023-05-10T23:50:00.162Z,5.07
2023-05-10T23:52:28.332Z,5.03
2023-05-10T23:54:56.668Z,4.98
2023-05-10T23:57:24.776Z,4.93
